LEZG/ZAZ METAR and TAF weather

Enter ICAO airport designator
Station Type Date Time Source
LEZG METAR 2019/04/25 02:30 UTC NOAA

LEZG 250230Z 16009KT 9999 FEW060 BKN080 15/10 Q1003


Station Type Date Time Source
LEZG Decoded METAR 2019/04/25 02:30 UTC NOAA

Zaragoza / Aeropuerto, Spain (LEZG) 41-40N 001-01W 258M
Apr 24, 2019 - 10:30 PM EDT / 2019.04.25 0230 UTC
Wind: from the SSE (160 degrees) at 10 MPH (9 KT):0
Visibility: greater than 7 mile(s):0
Sky conditions: mostly cloudy
Temperature: 59 F (15 C)
Dew Point: 50 F (10 C)
Relative Humidity: 72%
Pressure (altimeter): 29.62 in. Hg (1003 hPa)
ob: LEZG 250230Z 16009KT 9999 FEW060 BKN080 15/10 Q1003
cycle: 2

Station Type Date Time Source
LEZG TAF 2019/04/24 21:38 UTC NOAA

TAF
AMD LEZG 242134Z 2421/2518 14005KT 9999 FEW030 TX19/2514Z TN11/2506Z
TEMPO 2421/2422 26010KT 4000 RA BKN060 PROB30
TEMPO 2504/2506 VRB04KT 4000 SHRA FEW040TCU
BECMG 2505/2507 23010KT

Example: see airport list